Terminal Aerodrome Forecast
Issued by NWS Paducah, KY

Home | Current Version | Previous Version | Text Only | Print | Product List | Glossary On
Versions: 1 2 3 4 5 6 7 8 9 10 11 12 13 14 15 16 17 18 19 20 21
004
FTUS43 KPAH 110053 AAA
TAFEVV
TAF AMD
KEVV 110053Z 1101/1124 27008KT P6SM BKN045 OVC110
      TEMPO 1101/1102 4SM -SN BR BKN019
     FM110600 34004KT P6SM OVC040
     FM111330 02006KT P6SM SKC=

USA.gov is the U.S. government's official web portal to all federal, state and local government web resources and services.